Alice, Texas
Current Conditions -  °F | °C
As of 7:53 PM on Tuesday 25 Nov 2014 (Local Time) from KALI Reporting Station
Clear Clear  
Wind Chill: 11°   Ceiling: Unl
Heat Index: 11°   Visibility: 10mi
Dew Point:   Wind: 5mph
Humidity: 54%   Direction: 170°S
Pressure: 30.26"   Gusts: NA
Location:  27.75°N, 98.06°W
Report Text: KALI 260153Z AUTO 17004KT 10SM CLR 11/02 A3026 RMK AO2 SLP247 T01110022
Loading
Personal Weather Stations






























Interactive Weather Map New forecast layout! Learn more

10-Day Weather Forecast

Advertisements
Track Severe Weather on mobile